Point Baker, Alaska
Current Conditions -  °F | °C
As of 1:36 PM on Wednesday 22 Oct 2014 (Local Time) from PAPG Reporting Station
Broken Clouds Broken Clouds  
Wind Chill: 52°   Ceiling: 5500
Heat Index: 52°   Visibility: 10mi
Dew Point: 37°   Wind: 6mph
Humidity: 58%   Direction: 150°SSE
Pressure: 29.42"   Gusts: NA
Location:  56.35°N, 133.61°W
Report Text: PAPG 222136Z 15005KT 10SM FEW026 SCT044 BKN055 11/03 A2942 RMK AO1 WEA: -SHRA
Loading
Personal Weather Stations






























Interactive Weather Map
Tropical Storm Tracking
New forecast layout! Learn more

10-Day Weather Forecast

Advertisements
Track Severe Weather on mobile